Time;durP1;ratioP1;P1;durP2;ratioP2;P2;SDS_P1;SDS_P2;PMS_P1;PMS_P2;Temp;Humidity;BMP_temperature;BMP_pressure;BME280_temperature;BME280_humidity;BME280_pressure;Samples;Min_cycle;Max_cycle;Signal;HPM_P1;HPM_P2
2023/01/26 00:01:22;;;;;;;81.40;31.40;;;;;;;-3.05;100.00;101799.81;4981856;28;20046;-78
2023/01/26 00:03:50;;;;;;;94.47;34.47;;;;;;;-3.00;100.00;101789.09;5000082;28;20045;-76
2023/01/26 00:06:20;;;;;;;97.45;36.78;;;;;;;-2.96;100.00;101787.59;4995159;28;20057;-77
2023/01/26 00:08:50;;;;;;;84.10;33.10;;;;;;;-2.92;100.00;101788.69;4986718;28;20081;-77
2023/01/26 00:11:23;;;;;;;84.80;34.33;;;;;;;-2.91;100.00;101785.34;4985104;28;20099;-77
2023/01/26 00:13:51;;;;;;;88.22;33.80;;;;;;;-2.90;100.00;101784.56;5003096;28;20042;-76
2023/01/26 00:16:17;;;;;;;90.47;35.15;;;;;;;-2.93;100.00;101792.03;4978455;28;20053;-77
2023/01/26 00:18:44;;;;;;;88.25;34.92;;;;;;;-2.93;100.00;101787.81;4980358;28;20133;-77
2023/01/26 00:21:20;;;;;;;78.53;32.80;;;;;;;-2.89;100.00;101776.97;4969880;28;20149;-78
2023/01/26 00:23:48;;;;;;;90.07;33.60;;;;;;;-2.86;100.00;101769.44;4995597;28;20065;-77
2023/01/26 00:26:19;;;;;;;84.32;34.90;;;;;;;-2.89;100.00;101760.72;4998119;28;20054;-77
2023/01/26 00:28:46;;;;;;;89.57;37.20;;;;;;;-2.91;100.00;101754.59;4977781;28;20034;-76
2023/01/26 00:31:19;;;;;;;87.82;34.55;;;;;;;-2.90;100.00;101758.94;4978715;28;20097;-76
2023/01/26 00:33:46;;;;;;;73.38;30.48;;;;;;;-2.84;100.00;101751.63;4973508;28;20131;-76
2023/01/26 00:36:14;;;;;;;87.72;33.35;;;;;;;-2.80;100.00;101752.69;4990963;28;20076;-78
2023/01/26 00:38:41;;;;;;;83.50;34.90;;;;;;;-2.81;100.00;101751.81;4990672;28;20038;-76
2023/01/26 00:41:08;;;;;;;85.90;34.13;;;;;;;-2.74;100.00;101745.41;4975259;28;20046;-78
2023/01/26 00:43:35;;;;;;;80.82;32.85;;;;;;;-2.70;100.00;101742.22;4987460;28;20045;-77
2023/01/26 00:46:02;;;;;;;90.70;34.83;;;;;;;-2.68;100.00;101741.53;4991905;28;20218;-76
2023/01/26 00:48:28;;;;;;;78.53;33.50;;;;;;;-2.72;100.00;101737.00;4987096;28;20504;-76
2023/01/26 00:50:54;;;;;;;80.45;34.67;;;;;;;-2.78;100.00;101734.06;4981694;28;20042;-76
2023/01/26 00:53:21;;;;;;;92.63;36.42;;;;;;;-2.87;100.00;101736.06;4978495;28;20042;-77
2023/01/26 00:55:48;;;;;;;80.25;30.60;;;;;;;-2.86;100.00;101730.13;4974796;28;20062;-76
2023/01/26 00:58:14;;;;;;;89.10;31.73;;;;;;;-2.83;100.00;101733.78;4982969;28;20404;-76
2023/01/26 01:00:41;;;;;;;82.13;33.47;;;;;;;-2.79;100.00;101732.31;4989261;28;20449;-77
2023/01/26 01:03:07;;;;;;;86.88;30.88;;;;;;;-2.80;100.00;101722.84;4963960;28;20166;-77
2023/01/26 01:05:34;;;;;;;92.50;34.10;;;;;;;-2.77;100.00;101729.84;4981195;28;20477;-76
2023/01/26 01:08:02;;;;;;;87.85;32.53;;;;;;;-2.81;100.00;101728.75;4984211;28;20081;-75
2023/01/26 01:10:28;;;;;;;79.45;34.38;;;;;;;-2.81;100.00;101725.31;4987963;28;20034;-76
2023/01/26 01:12:55;;;;;;;79.47;29.77;;;;;;;-2.84;100.00;101719.19;4978850;28;20409;-76
2023/01/26 01:15:22;;;;;;;78.65;32.00;;;;;;;-2.83;100.00;101726.09;4980356;28;20061;-77
2023/01/26 01:17:49;;;;;;;74.22;30.42;;;;;;;-2.89;100.00;101715.47;5002188;28;20058;-76
2023/01/26 01:20:15;;;;;;;84.70;31.30;;;;;;;-2.88;100.00;101712.13;4982920;28;20046;-78
2023/01/26 01:22:42;;;;;;;80.97;31.33;;;;;;;-2.87;100.00;101713.00;4987979;28;20049;-76
2023/01/26 01:25:09;;;;;;;78.32;30.27;;;;;;;-2.89;100.00;101717.16;4987899;28;20042;-78
2023/01/26 01:27:35;;;;;;;79.20;29.40;;;;;;;-2.90;100.00;101718.81;5003008;28;20030;-77
2023/01/26 01:30:06;;;;;;;74.03;28.95;;;;;;;-2.83;100.00;101720.97;4986226;28;20608;-80
2023/01/26 01:32:35;;;;;;;77.10;29.42;;;;;;;-2.78;100.00;101712.69;4988401;28;20112;-77
2023/01/26 01:35:03;;;;;;;71.15;29.58;;;;;;;-2.80;100.00;101704.91;5000894;28;20076;-77
2023/01/26 01:37:32;;;;;;;76.53;29.55;;;;;;;-2.81;100.00;101707.38;4979489;28;20088;-77
2023/01/26 01:39:58;;;;;;;78.50;30.35;;;;;;;-2.75;100.00;101708.66;4974643;28;20054;-77
2023/01/26 01:42:26;;;;;;;87.10;32.00;;;;;;;-2.68;100.00;101704.78;4995003;28;20048;-76
2023/01/26 01:45:27;;;;;;;81.43;30.80;;;;;;;-2.63;100.00;101693.13;4982287;28;20060;-75
2023/01/26 01:48:02;;;;;;;80.13;32.38;;;;;;;-2.55;100.00;101696.16;5006050;28;20054;-76
2023/01/26 01:50:35;;;;;;;80.70;31.52;;;;;;;-2.56;100.00;101696.94;4992664;28;20096;-76
2023/01/26 01:53:01;;;;;;;74.10;29.65;;;;;;;-2.55;100.00;101693.59;4999341;28;20116;-76
2023/01/26 01:55:29;;;;;;;76.03;30.35;;;;;;;-2.54;100.00;101688.56;4982006;28;20050;-76
2023/01/26 01:57:59;;;;;;;87.18;31.17;;;;;;;-2.55;100.00;101684.22;4989654;28;20673;-77
2023/01/26 02:00:26;;;;;;;80.22;30.42;;;;;;;-2.55;100.00;101679.09;4991402;28;20525;-77
2023/01/26 02:03:13;;;;;;;77.22;30.38;;;;;;;-2.51;100.00;101672.47;4971342;28;20121;-77
2023/01/26 02:05:57;;;;;;;73.30;28.42;;;;;;;-2.48;100.00;101674.34;4991107;28;20045;-76
2023/01/26 02:08:30;;;;;;;75.68;27.38;;;;;;;-2.49;100.00;101678.56;4975928;28;20088;-77
2023/01/26 02:11:03;;;;;;;70.25;26.65;;;;;;;-2.46;100.00;101675.31;4998636;28;20054;-77
2023/01/26 02:13:31;;;;;;;69.47;29.03;;;;;;;-2.45;100.00;101677.09;4992686;28;20041;-77
2023/01/26 02:16:00;;;;;;;76.75;27.95;;;;;;;-2.46;100.00;101671.09;4983161;28;20309;-77
2023/01/26 02:18:28;;;;;;;74.20;28.02;;;;;;;-2.48;100.00;101669.22;4954570;28;20059;-77
2023/01/26 02:21:01;;;;;;;74.15;29.48;;;;;;;-2.45;100.00;101664.25;4986314;28;20412;-77
2023/01/26 02:24:01;;;;;;;67.97;27.77;;;;;;;-2.44;100.00;101668.59;4998331;28;20049;-77
2023/01/26 02:26:34;;;;;;;70.03;26.95;;;;;;;-2.44;100.00;101664.34;5001153;28;20037;-77
2023/01/26 02:29:03;;;;;;;70.78;27.00;;;;;;;-2.43;100.00;101652.44;4973105;28;20053;-77
2023/01/26 02:31:30;;;;;;;70.57;25.40;;;;;;;-2.43;100.00;101652.44;5008530;28;20540;-78
2023/01/26 02:33:57;;;;;;;70.22;29.17;;;;;;;-2.40;100.00;101655.16;4999677;28;20053;-78
2023/01/26 02:36:28;;;;;;;63.22;25.67;;;;;;;-2.40;100.00;101658.63;5002893;28;20070;-79
2023/01/26 02:39:22;;;;;;;62.78;26.58;;;;;;;-2.38;100.00;101649.34;4994445;28;20061;-76
2023/01/26 02:44:37;;;;;;;73.70;25.75;;;;;;;-2.34;100.00;101653.84;4988238;28;20032;-77
2023/01/26 02:47:16;;;;;;;68.13;28.08;;;;;;;-2.33;100.00;101652.19;4975641;28;20453;-76
2023/01/26 02:49:49;;;;;;;63.80;24.58;;;;;;;-2.30;100.00;101652.38;5001599;28;20073;-77
2023/01/26 02:52:21;;;;;;;80.75;25.77;;;;;;;-2.26;100.00;101656.88;4977092;28;20480;-77
2023/01/26 02:57:33;;;;;;;63.92;24.13;;;;;;;-2.27;100.00;101652.53;4968259;28;20044;-77
2023/01/26 03:00:00;;;;;;;63.83;25.13;;;;;;;-2.22;100.00;101651.13;4982715;28;20682;-76
2023/01/26 03:02:27;;;;;;;66.63;26.85;;;;;;;-2.26;100.00;101646.63;4965792;28;20047;-77
2023/01/26 03:04:54;;;;;;;62.20;24.27;;;;;;;-2.25;100.00;101650.09;4993014;28;20804;-77
2023/01/26 03:07:20;;;;;;;60.30;23.10;;;;;;;-2.24;100.00;101652.75;4978951;28;20060;-75
2023/01/26 03:09:47;;;;;;;64.60;25.92;;;;;;;-2.22;100.00;101651.13;4981652;28;20057;-77
2023/01/26 03:12:13;;;;;;;60.60;23.25;;;;;;;-2.19;100.00;101659.03;4986636;28;20050;-76
2023/01/26 03:14:40;;;;;;;64.05;23.65;;;;;;;-2.18;100.00;101654.78;4989635;28;20049;-76
2023/01/26 03:17:06;;;;;;;67.15;27.02;;;;;;;-2.17;100.00;101653.97;4991311;28;20046;-78
2023/01/26 03:27:59;;;;;;;51.88;22.92;;;;;;;-2.25;100.00;101645.81;4970933;28;20082;-77
2023/01/26 03:30:26;;;;;;;51.33;21.58;;;;;;;-2.24;100.00;101649.28;4995808;28;20057;-76
2023/01/26 03:32:53;;;;;;;64.10;22.70;;;;;;;-2.26;100.00;101646.63;4984773;28;20519;-78
2023/01/26 03:35:21;;;;;;;57.17;22.52;;;;;;;-2.35;100.00;101639.28;4959367;28;20061;-77
2023/01/26 03:37:53;;;;;;;67.65;23.98;;;;;;;-2.35;100.00;101643.50;4997973;28;20042;-79
2023/01/26 03:56:49;;;;;;;61.80;24.42;;;;;;;-2.32;100.00;101628.31;4999226;28;20044;-78
2023/01/26 03:59:16;;;;;;;59.22;22.63;;;;;;;-2.30;100.00;101629.28;5002374;28;20058;-77
2023/01/26 04:09:58;;;;;;;65.90;25.08;;;;;;;-2.29;100.00;101628.50;4987492;28;20049;-77
2023/01/26 04:12:25;;;;;;;55.95;23.38;;;;;;;-2.28;100.00;101622.59;4981998;28;20410;-77
2023/01/26 04:23:04;;;;;;;73.75;28.17;;;;;;;-2.25;100.00;101620.19;5009607;28;20054;-75
2023/01/26 04:25:31;;;;;;;72.05;26.52;;;;;;;-2.22;100.00;101611.78;4991081;28;20046;-76
2023/01/26 04:27:57;;;;;;;73.68;25.10;;;;;;;-2.23;100.00;101603.22;4986144;28;20054;-76
2023/01/26 04:30:24;;;;;;;69.15;25.73;;;;;;;-2.23;100.00;101610.91;4978768;28;20069;-77
2023/01/26 04:32:51;;;;;;;68.72;27.73;;;;;;;-2.22;100.00;101604.09;4985230;28;20153;-76
2023/01/26 04:35:18;;;;;;;66.07;25.13;;;;;;;-2.19;100.00;101605.16;4993326;28;20042;-75
2023/01/26 04:37:44;;;;;;;81.03;27.33;;;;;;;-2.17;100.00;101600.09;4962582;28;20134;-77
2023/01/26 04:40:11;;;;;;;60.83;26.08;;;;;;;-2.19;100.00;101588.88;4998240;28;20050;-77
2023/01/26 04:42:38;;;;;;;65.80;24.95;;;;;;;-2.20;100.00;101600.81;4970641;28;20034;-77
2023/01/26 04:45:05;;;;;;;59.58;24.27;;;;;;;-2.23;100.00;101600.66;4992750;28;20064;-78
2023/01/26 04:47:31;;;;;;;63.92;24.30;;;;;;;-2.18;100.00;101598.34;4989162;28;20038;-76
2023/01/26 04:49:58;;;;;;;58.00;23.55;;;;;;;-2.23;100.00;101600.66;4997740;28;20124;-76
2023/01/26 04:52:27;;;;;;;65.72;25.20;;;;;;;-2.21;100.00;101598.16;4979219;28;20433;-76
2023/01/26 04:54:54;;;;;;;68.57;27.90;;;;;;;-2.23;100.00;101592.06;4970787;28;20042;-76
2023/01/26 04:57:22;;;;;;;53.72;23.85;;;;;;;-2.21;100.00;101603.28;4975642;28;20046;-76
2023/01/26 04:59:49;;;;;;;58.42;24.67;;;;;;;-2.20;100.00;101607.63;4989737;28;20046;-75
2023/01/26 05:02:15;;;;;;;64.78;25.80;;;;;;;-2.17;100.00;101606.13;4982709;28;20046;-78
2023/01/26 05:04:42;;;;;;;70.03;26.73;;;;;;;-2.15;100.00;101593.41;4995261;28;20084;-76
2023/01/26 05:07:10;;;;;;;73.70;25.63;;;;;;;-2.16;100.00;101602.75;4997096;28;20065;-77
2023/01/26 05:09:37;;;;;;;71.15;25.10;;;;;;;-2.19;100.00;101592.34;4992389;28;20038;-76
2023/01/26 05:14:44;;;;;;;68.20;25.35;;;;;;;-2.18;100.00;101585.50;5005920;28;20117;-77
2023/01/26 05:17:10;;;;;;;67.90;25.95;;;;;;;-2.23;100.00;101586.91;4962025;28;20604;-77
2023/01/26 05:19:37;;;;;;;65.50;26.88;;;;;;;-2.20;100.00;101582.00;4974437;28;20498;-77
2023/01/26 05:22:03;;;;;;;53.80;23.45;;;;;;;-2.19;100.00;101592.34;4962040;28;20038;-76
2023/01/26 05:24:30;;;;;;;57.70;23.38;;;;;;;-2.18;100.00;101591.53;4988342;28;20077;-78
2023/01/26 05:29:37;;;;;;;74.93;26.38;;;;;;;-2.14;100.00;101587.44;4953109;28;20146;-76
2023/01/26 05:32:03;;;;;;;70.85;31.50;;;;;;;-2.17;100.00;101593.28;4973523;28;20061;-77
2023/01/26 05:34:30;;;;;;;76.63;29.95;;;;;;;-2.16;100.00;101592.50;4974152;28;20041;-77
2023/01/26 05:36:57;;;;;;;66.88;27.52;;;;;;;-2.17;100.00;101590.72;4994444;28;20078;-77
2023/01/26 05:39:23;;;;;;;68.18;27.65;;;;;;;-2.17;100.00;101590.72;4971046;28;20081;-78
2023/01/26 05:41:50;;;;;;;74.25;28.67;;;;;;;-2.16;100.00;101592.50;4983908;28;20042;-77
2023/01/26 05:44:16;;;;;;;58.45;26.30;;;;;;;-2.16;100.00;101591.63;4972072;28;20476;-77
2023/01/26 05:46:44;;;;;;;75.35;30.55;;;;;;;-2.16;100.00;101595.06;4970221;28;20058;-76
2023/01/26 05:49:11;;;;;;;71.65;28.55;;;;;;;-2.13;100.00;101596.91;4974447;28;20047;-78
2023/01/26 05:51:37;;;;;;;75.28;29.23;;;;;;;-2.13;100.00;101596.06;4968495;28;20050;-76
2023/01/26 05:54:04;;;;;;;80.78;30.05;;;;;;;-2.14;100.00;101596.84;4973817;28;20056;-76
2023/01/26 05:56:32;;;;;;;65.57;29.02;;;;;;;-2.13;100.00;101604.63;4959554;28;20122;-77
2023/01/26 05:58:59;;;;;;;63.05;27.27;;;;;;;-2.13;100.00;101604.63;4966516;28;20054;-77
2023/01/26 06:01:26;;;;;;;69.97;27.20;;;;;;;-2.13;100.00;101607.19;4970566;28;20057;-77
2023/01/26 06:03:54;;;;;;;56.85;25.55;;;;;;;-2.17;100.00;101606.13;4956159;28;20051;-76
2023/01/26 06:06:21;;;;;;;65.63;27.00;;;;;;;-2.19;100.00;101601.69;4969981;28;20056;-78
2023/01/26 06:08:48;;;;;;;69.07;31.08;;;;;;;-2.19;100.00;101597.47;4969884;28;20094;-76
2023/01/26 06:11:14;;;;;;;74.90;29.60;;;;;;;-2.19;100.00;101600.03;4965635;28;20049;-78
2023/01/26 06:13:41;;;;;;;77.22;30.92;;;;;;;-2.20;100.00;101599.94;4968414;28;20120;-78
2023/01/26 06:16:07;;;;;;;74.20;31.40;;;;;;;-2.21;100.00;101595.59;4968246;28;20039;-77
2023/01/26 06:18:34;;;;;;;69.80;30.27;;;;;;;-2.20;100.00;101598.25;4967627;28;20039;-76
2023/01/26 06:21:01;;;;;;;72.78;28.92;;;;;;;-2.22;100.00;101597.25;4956930;28;20054;-76
2023/01/26 06:23:30;;;;;;;68.18;29.67;;;;;;;-2.21;100.00;101601.59;4959694;28;20057;-78
2023/01/26 06:26:01;;;;;;;75.72;30.48;;;;;;;-2.20;100.00;101598.25;4970535;28;20061;-76
2023/01/26 06:28:30;;;;;;;75.25;29.50;;;;;;;-2.18;100.00;101601.81;4981082;28;20069;-77
2023/01/26 06:31:09;;;;;;;67.93;28.13;;;;;;;-2.15;100.00;101598.53;4965863;28;20113;-78
2023/01/26 06:33:37;;;;;;;64.38;28.77;;;;;;;-2.11;100.00;101597.91;4966313;28;20042;-77
2023/01/26 06:36:07;;;;;;;69.28;29.70;;;;;;;-2.11;100.00;101602.13;4967655;28;20094;-76
2023/01/26 06:38:34;;;;;;;66.15;28.50;;;;;;;-2.08;100.00;101604.91;4959845;28;20678;-76
2023/01/26 06:41:06;;;;;;;64.78;28.50;;;;;;;-2.06;100.00;101609.31;4956875;28;20371;-77
2023/01/26 06:43:34;;;;;;;64.80;27.52;;;;;;;-2.04;100.00;101607.72;4963462;28;20405;-79
2023/01/26 06:46:01;;;;;;;64.85;27.33;;;;;;;-2.05;100.00;101605.94;4951841;28;20054;-77
2023/01/26 06:48:32;;;;;;;59.03;27.52;;;;;;;-2.01;100.00;101604.44;4954798;28;20061;-77
2023/01/26 06:51:16;;;;;;;60.28;26.52;;;;;;;-1.96;100.00;101609.84;4981616;28;20065;-79
2023/01/26 06:53:46;;;;;;;;;;;;;;;-1.93;100.00;101605.78;4986283;28;20050;-80
2023/01/26 06:56:14;;;;;;;62.83;24.10;;;;;;;-1.93;100.00;101603.22;4938309;28;20016;-78
2023/01/26 06:58:40;;;;;;;62.05;27.33;;;;;;;-1.87;100.00;101606.09;4955331;28;20117;-77
2023/01/26 07:01:07;;;;;;;57.17;26.33;;;;;;;-1.86;100.00;101601.88;4964340;28;20054;-76
2023/01/26 07:03:34;;;;;;;54.72;25.15;;;;;;;-1.83;100.00;101607.19;4988407;28;20046;-78
2023/01/26 07:06:01;;;;;;;64.70;26.27;;;;;;;-1.80;100.00;101609.03;4944673;28;20051;-78
2023/01/26 07:08:28;;;;;;;61.30;25.50;;;;;;;-1.82;100.00;101611.53;4970991;28;20463;-78
2023/01/26 07:10:55;;;;;;;70.35;28.92;;;;;;;-1.87;100.00;101618.06;4985445;28;20034;-78
2023/01/26 07:13:21;;;;;;;61.88;27.02;;;;;;;-1.87;100.00;101615.50;4964341;28;20043;-77
2023/01/26 07:15:48;;;;;;;63.22;29.13;;;;;;;-1.89;100.00;101618.00;4949198;28;20146;-79
2023/01/26 07:18:16;;;;;;;61.35;25.27;;;;;;;-1.91;100.00;101618.69;4952835;28;20058;-80
2023/01/26 07:20:43;;;;;;;62.40;25.30;;;;;;;-1.88;100.00;101613.72;4968454;28;20066;-75
2023/01/26 07:23:10;;;;;;;72.55;27.05;;;;;;;-1.84;100.00;101613.09;4971747;28;20062;-77
2023/01/26 07:25:38;;;;;;;70.28;29.52;;;;;;;-1.85;100.00;101609.66;4966711;28;20125;-81
2023/01/26 07:28:08;;;;;;;61.50;27.65;;;;;;;-1.83;100.00;101620.00;4958676;28;20050;-77
2023/01/26 07:30:35;;;;;;;60.47;26.67;;;;;;;-1.78;100.00;101617.72;4991855;28;20050;-74
2023/01/26 07:33:04;;;;;;;59.72;26.92;;;;;;;-1.76;100.00;101617.00;4981620;28;20106;-74
2023/01/26 07:35:31;;;;;;;62.40;26.08;;;;;;;-1.77;100.00;101617.81;4963836;28;20043;-77
2023/01/26 07:37:58;;;;;;;59.65;27.80;;;;;;;-1.78;100.00;101618.59;4957299;28;20056;-76
2023/01/26 07:40:25;;;;;;;62.00;26.33;;;;;;;-1.76;100.00;101610.97;4983370;28;20097;-75
2023/01/26 07:42:52;;;;;;;69.85;28.48;;;;;;;-1.76;100.00;101610.97;4968592;28;20141;-75
2023/01/26 07:45:18;;;;;;;57.42;25.05;;;;;;;-1.80;100.00;101615.03;4952794;28;20137;-75
2023/01/26 07:47:45;;;;;;;60.72;26.52;;;;;;;-1.77;100.00;101619.47;4953995;28;20057;-76
2023/01/26 07:50:12;;;;;;;60.15;27.70;;;;;;;-1.76;100.00;101623.81;4950950;28;20074;-76
2023/01/26 07:52:40;;;;;;;59.78;25.90;;;;;;;-1.75;100.00;101615.31;4964063;28;20046;-75
2023/01/26 07:55:07;;;;;;;58.03;27.35;;;;;;;-1.70;100.00;101619.03;4965211;28;20066;-76
2023/01/26 07:57:34;;;;;;;68.53;27.95;;;;;;;-1.68;100.00;101620.88;4949621;28;20499;-76
2023/01/26 08:00:00;;;;;;;62.55;26.60;;;;;;;-1.63;100.00;101616.03;4948913;28;20043;-75
2023/01/26 08:02:27;;;;;;;67.22;29.52;;;;;;;-1.60;100.00;101620.41;4946177;28;20490;-75
2023/01/26 08:04:53;;;;;;;58.70;25.52;;;;;;;-1.61;100.00;101613.53;4949732;28;20050;-77
2023/01/26 08:07:20;;;;;;;57.67;26.85;;;;;;;-1.63;100.00;101616.03;4957024;28;20066;-78
2023/01/26 08:09:46;;;;;;;60.60;27.52;;;;;;;-1.60;100.00;101620.41;4953516;28;20054;-76
2023/01/26 08:12:13;;;;;;;65.90;27.63;;;;;;;-1.60;100.00;101618.75;4960795;28;20039;-77
2023/01/26 08:14:41;;;;;;;63.88;26.92;;;;;;;-1.53;100.00;101618.28;4973389;28;20038;-75
2023/01/26 08:17:07;;;;;;;64.72;24.75;;;;;;;-1.52;100.00;101620.03;4961972;28;20053;-76
2023/01/26 08:19:34;;;;;;;63.65;26.88;;;;;;;-1.53;100.00;101623.41;4973036;28;20046;-76
2023/01/26 08:22:00;;;;;;;59.70;26.98;;;;;;;-1.46;100.00;101634.94;4963568;28;20043;-75
2023/01/26 08:24:27;;;;;;;63.85;26.25;;;;;;;-1.47;100.00;101633.16;4962575;28;20051;-77
2023/01/26 08:26:54;;;;;;;59.88;25.50;;;;;;;-1.42;100.00;101631.72;4968480;28;20047;-78
2023/01/26 08:29:21;;;;;;;63.13;27.20;;;;;;;-1.42;100.00;101638.53;4965143;28;20593;-78
2023/01/26 08:31:47;;;;;;;56.55;25.63;;;;;;;-1.45;100.00;101638.38;4977795;28;20070;-78
2023/01/26 08:34:14;;;;;;;58.67;25.92;;;;;;;-1.45;100.00;101630.66;4966345;28;20043;-78
2023/01/26 08:36:41;;;;;;;59.58;27.20;;;;;;;-1.49;100.00;101632.19;4961005;28;20053;-78
2023/01/26 08:39:08;;;;;;;68.72;28.08;;;;;;;-1.49;100.00;101637.31;4958848;28;20121;-77
2023/01/26 08:41:35;;;;;;;62.45;26.63;;;;;;;-1.47;100.00;101638.31;4965284;28;20155;-76
2023/01/26 08:44:02;;;;;;;55.45;25.75;;;;;;;-1.45;100.00;101639.25;4957915;28;20039;-77
2023/01/26 08:46:29;;;;;;;58.08;26.38;;;;;;;-1.43;100.00;101629.97;4949208;28;20042;-77
2023/01/26 08:48:55;;;;;;;55.83;24.83;;;;;;;-1.39;100.00;101629.31;4981236;28;20051;-78
2023/01/26 08:51:22;;;;;;;59.13;25.60;;;;;;;-1.37;100.00;101632.88;4970959;28;20485;-77
2023/01/26 08:53:49;;;;;;;62.00;25.52;;;;;;;-1.35;100.00;101628.69;4959947;28;20382;-75
2023/01/26 08:56:15;;;;;;;51.53;24.65;;;;;;;-1.32;100.00;101635.69;4960871;28;20085;-76
2023/01/26 08:58:42;;;;;;;57.58;25.23;;;;;;;-1.31;100.00;101636.59;4981571;28;20712;-76
2023/01/26 09:01:12;;;;;;;48.58;22.92;;;;;;;-1.31;100.00;101645.16;4966817;28;20137;-77
2023/01/26 09:03:39;;;;;;;52.40;23.73;;;;;;;-1.35;100.00;101648.38;4962823;28;20108;-76
2023/01/26 09:06:08;;;;;;;50.38;24.33;;;;;;;-1.34;100.00;101643.31;4977104;28;20039;-79
2023/01/26 09:08:35;;;;;;;42.60;20.98;;;;;;;-1.33;100.00;101644.19;4958777;28;20076;-77
2023/01/26 09:11:02;;;;;;;44.72;20.67;;;;;;;-1.35;100.00;101635.53;4969616;28;20034;-76
2023/01/26 09:13:28;;;;;;;47.45;21.23;;;;;;;-1.28;100.00;101634.16;4979093;28;20130;-75
2023/01/26 09:15:56;;;;;;;51.75;22.58;;;;;;;-1.27;100.00;101631.69;4972074;28;20050;-76
2023/01/26 09:18:23;;;;;;;51.67;22.48;;;;;;;-1.29;100.00;101632.41;4970134;28;22794;-77
2023/01/26 09:20:50;;;;;;;43.22;20.50;;;;;;;-1.30;100.00;101635.75;4966715;28;20061;-77
2023/01/26 09:23:17;;;;;;;53.67;23.58;;;;;;;-1.30;100.00;101646.94;4969897;28;20066;-78
2023/01/26 09:25:44;;;;;;;54.47;24.02;;;;;;;-1.30;100.00;101641.81;4951469;28;20042;-76
2023/01/26 09:28:11;;;;;;;48.90;21.85;;;;;;;-1.29;100.00;101633.31;4983319;28;20129;-76
2023/01/26 09:30:37;;;;;;;47.15;21.40;;;;;;;-1.23;100.00;101636.19;4979137;28;20105;-76
2023/01/26 09:33:05;;;;;;;44.55;21.67;;;;;;;-1.17;100.00;101640.78;4970403;28;20129;-76
2023/01/26 09:35:33;;;;;;;46.58;22.35;;;;;;;-1.17;100.00;101644.22;4973257;28;20118;-75
2023/01/26 09:37:59;;;;;;;49.85;22.35;;;;;;;-1.17;100.00;101641.66;4969833;28;20062;-77
2023/01/26 09:40:44;;;;;;;55.92;23.63;;;;;;;-1.09;100.00;101641.22;4974640;28;20053;-77
2023/01/26 09:43:32;;;;;;;48.70;22.00;;;;;;;-1.02;100.00;101633.91;4990043;28;20097;-77
2023/01/26 09:46:35;;;;;;;47.38;21.25;;;;;;;-0.95;100.00;101636.81;4958036;28;20516;-76
2023/01/26 09:49:31;;;;;;;41.97;18.50;;;;;;;-0.96;100.00;101628.22;4971404;28;20066;-76
2023/01/26 09:52:06;;;;;;;47.58;21.08;;;;;;;-1.01;100.00;101633.09;4975505;28;20544;-76
2023/01/26 09:54:43;;;;;;;48.58;21.73;;;;;;;-0.98;100.00;101626.38;4958437;28;20050;-76
2023/01/26 09:57:15;;;;;;;46.00;20.02;;;;;;;-0.98;100.00;101621.22;4947147;28;20121;-76
2023/01/26 09:59:57;;;;;;;52.90;21.98;;;;;;;-0.96;100.00;101620.50;4952591;28;20078;-76
2023/01/26 10:02:35;;;;;;;44.03;20.08;;;;;;;-0.96;100.00;101627.34;4954856;28;20102;-76
2023/01/26 10:05:12;;;;;;;38.92;19.88;;;;;;;-0.97;100.00;101630.72;4964421;28;20058;-77
2023/01/26 10:07:44;;;;;;;62.22;26.40;;;;;;;-0.95;100.00;101626.53;4964861;28;20051;-77
2023/01/26 10:10:25;;;;;;;42.13;19.38;;;;;;;-0.94;100.00;101626.63;4956249;28;20038;-76
2023/01/26 10:12:53;;;;;;;47.10;19.95;;;;;;;-0.94;100.00;101623.16;4960296;28;20064;-76
2023/01/26 10:15:42;;;;;;;41.38;18.83;;;;;;;-0.94;100.00;101623.16;4972520;28;20035;-77
2023/01/26 10:18:22;;;;;;;36.55;17.48;;;;;;;-0.88;100.00;101624.34;4965437;28;20042;-76
2023/01/26 10:20:54;;;;;;;43.65;19.98;;;;;;;-0.78;100.00;101625.75;4971778;28;20039;-76
2023/01/26 10:23:29;;;;;;;49.30;21.80;;;;;;;-0.79;100.00;101621.41;4964798;28;20054;-77
2023/01/26 10:26:20;;;;;;;38.30;18.55;;;;;;;-0.77;100.00;101619.81;4973763;28;20049;-76
2023/01/26 10:28:50;;;;;;;34.67;16.75;;;;;;;-0.74;100.00;101621.66;4970076;28;20042;-77
2023/01/26 10:31:31;;;;;;;40.13;16.58;;;;;;;-0.75;100.00;101609.59;4970970;28;20413;-76
2023/01/26 10:34:16;;;;;;;41.90;19.05;;;;;;;-0.71;100.00;101614.09;4967515;28;20138;-77
2023/01/26 10:36:46;;;;;;;49.70;20.45;;;;;;;-0.67;100.00;101606.59;4970340;28;20054;-77
2023/01/26 10:39:16;;;;;;;37.90;18.83;;;;;;;-0.63;100.00;101605.09;4963880;28;20074;-79
2023/01/26 10:42:00;;;;;;;36.58;18.73;;;;;;;-0.54;100.00;101600.41;4969057;28;20042;-76
2023/01/26 10:44:39;;;;;;;40.47;19.67;;;;;;;-0.48;100.00;101597.28;4970984;28;20042;-78
2023/01/26 10:47:19;;;;;;;47.33;21.17;;;;;;;-0.39;100.00;101586.56;4968425;28;20130;-81
2023/01/26 10:49:49;;;;;;;39.38;20.70;;;;;;;-0.34;100.00;101585.09;4993227;28;20114;-77
2023/01/26 10:52:24;;;;;;;46.30;21.33;;;;;;;-0.28;100.00;101576.84;4971540;28;20073;-75
2023/01/26 10:55:20;;;;;;;49.38;21.63;;;;;;;-0.25;100.00;101582.13;4977421;28;20050;-77
2023/01/26 10:57:47;;;;;;;39.90;19.17;;;;;;;-0.28;100.00;101577.72;4950886;28;20122;-80
2023/01/26 11:00:28;;;;;;;44.78;20.52;;;;;;;-0.27;100.00;101583.75;4973106;28;20045;-78
2023/01/26 11:03:06;;;;;;;41.42;18.52;;;;;;;-0.25;100.00;101580.44;4976120;28;20054;-78
2023/01/26 11:05:33;;;;;;;46.95;21.10;;;;;;;-0.23;100.00;101577.94;4979828;28;20045;-76
2023/01/26 11:08:02;;;;;;;46.70;21.00;;;;;;;-0.22;100.00;101578.03;4981791;28;20377;-77
2023/01/26 11:10:39;;;;;;;42.63;21.00;;;;;;;-0.23;100.00;101571.09;4958007;28;20097;-77
2023/01/26 11:13:21;;;;;;;49.25;21.33;;;;;;;-0.28;100.00;101572.56;4947319;28;20138;-80
2023/01/26 11:16:10;;;;;;;46.92;20.83;;;;;;;-0.35;100.00;101567.94;4949811;28;20042;-79
2023/01/26 11:19:03;;;;;;;47.85;21.63;;;;;;;-0.38;100.00;101570.31;4978471;28;20045;-78
2023/01/26 11:21:42;;;;;;;40.10;18.98;;;;;;;-0.33;100.00;101561.16;4979753;28;20036;-78
2023/01/26 11:24:25;;;;;;;40.53;17.73;;;;;;;-0.23;100.00;101565.94;4970372;28;20490;-79
2023/01/26 11:27:18;;;;;;;42.67;17.88;;;;;;;-0.19;100.00;101560.16;4968844;28;20122;-77
2023/01/26 11:30:02;;;;;;;38.53;18.38;;;;;;;-0.13;100.00;101559.59;4947034;28;20125;-78
2023/01/26 11:32:54;;;;;;;41.40;17.95;;;;;;;-0.06;100.00;101555.63;4967172;28;20092;-79
2023/01/26 11:35:43;;;;;;;45.33;20.98;;;;;;;-0.07;100.00;101553.84;4962326;28;20106;-79
2023/01/26 11:38:43;;;;;;;41.30;19.20;;;;;;;-0.06;100.00;101563.34;4953647;28;20300;-77
2023/01/26 11:41:38;;;;;;;44.05;18.85;;;;;;;-0.04;100.00;101556.56;4964071;28;20046;-77
2023/01/26 11:44:29;;;;;;;39.95;18.13;;;;;;;-0.06;100.00;101548.75;4965318;28;20097;-78
2023/01/26 11:47:52;;;;;;;41.13;18.58;;;;;;;-0.07;100.00;101539.28;4962938;28;20055;-77
2023/01/26 11:50:35;;;;;;;44.47;19.05;;;;;;;-0.05;100.00;101536.81;4977076;28;20057;-78
2023/01/26 11:53:36;;;;;;;41.92;19.95;;;;;;;0.01;100.00;101542.22;4958167;28;20094;-78
2023/01/26 11:56:28;;;;;;;42.53;18.13;;;;;;;0.02;100.00;101541.41;4977207;28;20472;-79
2023/01/26 11:59:09;;;;;;;44.03;19.20;;;;;;;-0.04;100.00;101531.72;4959906;28;20047;-78
2023/01/26 12:01:46;;;;;;;40.58;17.58;;;;;;;-0.07;100.00;101533.25;4967437;28;20128;-79
2023/01/26 12:04:20;;;;;;;43.20;19.50;;;;;;;-0.09;100.00;101534.84;4960404;28;20046;-79
2023/01/26 12:07:03;;;;;;;44.20;19.83;;;;;;;-0.10;100.00;101535.69;4959349;28;20034;-77
2023/01/26 12:09:51;;;;;;;44.70;20.38;;;;;;;-0.11;100.00;101537.38;4964799;28;20042;-78
2023/01/26 12:12:37;;;;;;;39.80;18.70;;;;;;;-0.13;100.00;101538.09;4964822;28;20170;-83